KHKS/HKS METAR and TAF weather

Enter ICAO airport designator
Station Type Date Time Source
KHKS METAR 2018/12/11 17:53 UTC NOAA

KHKS 111753Z 00000KT 10SM CLR 09/M06 A3038 RMK AO2 SLP285 T00941061 10094 21044 58017


Station Type Date Time Source
KHKS Decoded METAR 2018/12/11 17:53 UTC NOAA

HAWKINS FIELD, MS, United States (KHKS) 32-20N 090-13W 108M
Dec 11, 2018 - 12:53 PM EST / 2018.12.11 1753 UTC
Wind: Calm:0
Visibility: 10 mile(s):0
Sky conditions: clear
Temperature: 48.9 F (9.4 C)
Dew Point: 21.0 F (-6.1 C)
Relative Humidity: 32%
Pressure (altimeter): 30.38 in. Hg (1028 hPa)
Pressure tendency: 0.05 inches (1.7 hPa) lower than three hours ago
ob: KHKS 111753Z 00000KT 10SM CLR 09/M06 A3038 RMK AO2 SLP285 T00941061 10094 21044 58017
cycle: 18

Station Type Date Time Source
KHKS TAF 2018/12/11 18:22 UTC NOAA

TAF KHKS 111720Z 1118/1218 22004KT P6SM SKC


Example: see airport list